Time;durP1;ratioP1;P1;durP2;ratioP2;P2;SDS_P1;SDS_P2;PMS_P1;PMS_P2;Temp;Humidity;BMP_temperature;BMP_pressure;BME280_temperature;BME280_humidity;BME280_pressure;Samples;Min_cycle;Max_cycle;Signal;HPM_P1;HPM_P2
2023/07/28 00:00:26;;;;;;;2.40;1.58;;;;;;;15.68;100.00;98361.56;4484635;32;20111;-67
2023/07/28 00:02:53;;;;;;;2.97;1.50;;;;;;;15.67;100.00;98358.12;4486033;32;20498;-68
2023/07/28 00:05:20;;;;;;;2.37;1.50;;;;;;;15.69;100.00;98366.66;4486197;32;20114;-67
2023/07/28 00:07:47;;;;;;;2.67;1.52;;;;;;;15.84;100.00;98365.91;4486021;31;20359;-67
2023/07/28 00:10:15;;;;;;;2.90;1.77;;;;;;;15.86;100.00;98361.25;4486105;32;20499;-68
2023/07/28 00:12:43;;;;;;;3.72;2.20;;;;;;;15.85;100.00;98359.63;4486060;31;20085;-67
2023/07/28 00:15:10;;;;;;;2.22;1.62;;;;;;;15.92;100.00;98365.81;4486044;31;20116;-67
2023/07/28 00:17:37;;;;;;;2.05;1.45;;;;;;;15.93;100.00;98367.47;4485878;32;20100;-68
2023/07/28 00:20:05;;;;;;;3.72;1.67;;;;;;;15.94;100.00;98354.06;4486006;32;20107;-67
2023/07/28 00:22:34;;;;;;;3.67;1.52;;;;;;;15.89;100.00;98355.63;4485889;31;20135;-67
2023/07/28 00:25:02;;;;;;;2.00;1.40;;;;;;;15.85;100.00;98349.03;4486089;32;20092;-67
2023/07/28 00:27:30;;;;;;;2.30;1.62;;;;;;;15.90;100.00;98344.06;4485730;31;20118;-67
2023/07/28 00:29:57;;;;;;;2.50;1.60;;;;;;;15.94;100.00;98343.50;4485896;31;20101;-67
2023/07/28 00:32:25;;;;;;;3.65;1.50;;;;;;;15.96;100.00;98344.12;4485921;32;20158;-67
2023/07/28 00:34:54;;;;;;;1.85;1.30;;;;;;;16.00;100.00;98347.22;4486014;31;20110;-67
2023/07/28 00:37:21;;;;;;;2.90;1.65;;;;;;;15.97;100.00;98352.88;4485869;32;20093;-68
2023/07/28 00:39:48;;;;;;;2.55;1.73;;;;;;;15.94;100.00;98348.78;4485887;32;20107;-67
2023/07/28 00:42:16;;;;;;;3.05;1.83;;;;;;;15.94;100.00;98342.66;4485726;31;20123;-67
2023/07/28 00:44:43;;;;;;;3.65;1.48;;;;;;;16.00;100.00;98341.13;4485939;32;20143;-67
2023/07/28 00:47:11;;;;;;;4.12;1.35;;;;;;;16.04;100.00;98335.28;4485896;32;20406;-67
2023/07/28 00:49:40;;;;;;;2.83;1.83;;;;;;;16.11;100.00;98336.22;4485871;32;20670;-67
2023/07/28 00:52:08;;;;;;;2.97;1.65;;;;;;;16.20;100.00;98325.53;4476012;32;20135;-68
2023/07/28 00:54:36;;;;;;;1.85;1.42;;;;;;;16.17;100.00;98326.75;4468531;32;20112;-67
2023/07/28 00:57:05;;;;;;;4.18;1.75;;;;;;;16.22;100.00;98339.41;4469711;32;20089;-68
2023/07/28 00:59:32;;;;;;;3.30;1.90;;;;;;;16.36;100.00;98335.91;4470077;32;20135;-67
2023/07/28 01:02:00;;;;;;;3.92;1.65;;;;;;;16.32;99.19;98340.75;4469987;32;20120;-67
2023/07/28 01:04:27;;;;;;;2.45;1.65;;;;;;;16.41;98.67;98343.28;4469973;32;20093;-67
2023/07/28 01:07:10;;;;;;;3.40;1.83;;;;;;;16.52;97.91;98339.31;4470301;32;20088;-67
2023/07/28 01:10:21;;;;;;;5.97;1.92;;;;;;;16.59;96.50;98332.28;4470256;32;20134;-67
2023/07/28 01:12:49;;;;;;;2.37;1.65;;;;;;;16.66;96.22;98334.00;4469096;32;20089;-67
2023/07/28 01:15:16;;;;;;;2.85;1.37;;;;;;;16.66;96.10;98330.56;4483386;32;20096;-67
2023/07/28 01:17:44;;;;;;;5.07;1.90;;;;;;;16.73;96.01;98333.25;4485963;31;20127;-67
2023/07/28 01:20:12;;;;;;;2.53;1.62;;;;;;;16.80;95.24;98336.78;4485719;31;20088;-67
2023/07/28 01:22:47;;;;;;;3.00;1.70;;;;;;;16.82;94.83;98335.59;4485522;31;20092;-67
2023/07/28 01:26:18;;;;;;;2.90;1.67;;;;;;;16.87;94.58;98327.13;4485901;31;20188;-67
2023/07/28 01:28:46;;;;;;;3.70;1.80;;;;;;;16.89;94.48;98324.31;4442632;32;20120;-67
2023/07/28 01:31:13;;;;;;;2.70;1.60;;;;;;;16.88;93.97;98325.31;4439085;32;20391;-67
2023/07/28 01:33:41;;;;;;;2.17;1.87;;;;;;;16.85;93.92;98334.41;4426497;32;20186;-67
2023/07/28 01:36:09;;;;;;;1.98;1.42;;;;;;;16.88;93.95;98323.50;4452332;32;20125;-67
2023/07/28 01:38:36;;;;;;;2.70;1.55;;;;;;;16.89;94.68;98324.31;4451876;32;20462;-67
2023/07/28 01:41:04;;;;;;;3.12;1.70;;;;;;;16.86;94.41;98322.81;4451863;32;20443;-68
2023/07/28 01:43:32;;;;;;;2.45;1.30;;;;;;;16.76;95.75;98325.78;4451746;32;20469;-67
2023/07/28 01:46:00;;;;;;;4.75;2.00;;;;;;;16.72;96.82;98318.41;4451948;32;20168;-67
2023/07/28 01:48:28;;;;;;;2.80;1.92;;;;;;;16.71;97.70;98325.50;4451711;32;20166;-67
2023/07/28 01:50:57;;;;;;;3.80;1.67;;;;;;;16.70;97.50;98326.53;4451561;32;20129;-67
2023/07/28 01:53:24;;;;;;;2.92;1.70;;;;;;;16.65;97.71;98319.16;4451580;32;20109;-68
2023/07/28 01:55:53;;;;;;;2.00;1.50;;;;;;;16.62;97.86;98321.34;4451701;32;20165;-68
2023/07/28 01:58:21;;;;;;;3.62;1.90;;;;;;;16.55;98.48;98320.44;4451477;32;20112;-67
2023/07/28 02:00:49;;;;;;;3.03;2.03;;;;;;;16.47;99.87;98316.94;4451520;32;20092;-68
2023/07/28 02:03:17;;;;;;;4.10;1.60;;;;;;;16.36;100.00;98314.75;4458804;32;20126;-68
2023/07/28 02:05:44;;;;;;;3.70;2.20;;;;;;;16.36;100.00;98314.75;4485391;32;20115;-67
2023/07/28 02:08:12;;;;;;;2.45;1.50;;;;;;;16.28;100.00;98314.88;4484027;32;20156;-68
2023/07/28 02:10:43;;;;;;;2.33;1.73;;;;;;;16.27;100.00;98321.97;4485251;32;20164;-67
2023/07/28 02:13:10;;;;;;;3.08;1.83;;;;;;;16.27;100.00;98315.87;4485383;31;20104;-67
2023/07/28 02:15:37;;;;;;;3.12;1.35;;;;;;;16.28;100.00;98315.69;4485043;32;20097;-67
2023/07/28 02:18:07;;;;;;;2.95;1.40;;;;;;;16.23;100.00;98311.94;4485106;32;20572;-67
2023/07/28 02:20:35;;;;;;;2.78;1.70;;;;;;;16.29;100.00;98322.63;4485092;31;20141;-67
2023/07/28 02:23:03;;;;;;;2.17;1.55;;;;;;;16.29;99.93;98313.84;4485247;31;20161;-68
2023/07/28 02:25:30;;;;;;;3.90;1.73;;;;;;;16.30;99.82;98313.66;4485103;31;20589;-67
2023/07/28 02:27:57;;;;;;;2.60;1.77;;;;;;;16.25;100.00;98312.59;4484907;32;20122;-67
2023/07/28 02:30:26;;;;;;;4.25;1.92;;;;;;;16.17;99.92;98307.41;4484954;31;20126;-67
2023/07/28 02:32:57;;;;;;;1.77;1.42;;;;;;;16.17;100.00;98302.13;4485112;31;20370;-67
2023/07/28 02:35:24;;;;;;;2.62;1.45;;;;;;;16.13;100.00;98314.88;4485119;32;20084;-67
2023/07/28 02:37:51;;;;;;;3.87;1.70;;;;;;;16.06;100.00;98313.97;4484852;31;20096;-67
2023/07/28 02:40:19;;;;;;;3.53;2.15;;;;;;;16.07;100.00;98321.72;4485084;32;20080;-67
2023/07/28 02:42:46;;;;;;;2.62;1.83;;;;;;;16.11;100.00;98314.25;4484757;32;20112;-67
2023/07/28 02:45:13;;;;;;;3.10;1.70;;;;;;;16.10;100.00;98315.25;4485016;32;20232;-67
2023/07/28 02:47:40;;;;;;;2.58;1.65;;;;;;;16.13;100.00;98313.06;4484873;31;20111;-67
2023/07/28 02:50:08;;;;;;;2.28;1.50;;;;;;;16.12;100.00;98308.78;4484714;32;20559;-67
2023/07/28 02:52:35;;;;;;;4.22;1.80;;;;;;;16.12;100.00;98303.50;4484942;31;20105;-68
2023/07/28 02:55:03;;;;;;;2.42;1.80;;;;;;;16.04;100.00;98310.72;4484880;32;20156;-67
2023/07/28 02:57:35;;;;;;;2.65;1.65;;;;;;;16.03;100.00;98315.16;4485059;31;20102;-67
2023/07/28 03:00:05;;;;;;;2.45;1.85;;;;;;;16.06;100.00;98316.63;4485036;32;20096;-67
2023/07/28 03:02:32;;;;;;;3.62;1.90;;;;;;;16.07;100.00;98320.91;4483437;32;20185;-67
2023/07/28 03:05:00;;;;;;;2.75;1.73;;;;;;;16.10;100.00;98316.06;4484905;32;20172;-67
2023/07/28 03:07:28;;;;;;;5.68;2.00;;;;;;;16.19;100.00;98313.34;4484910;32;20088;-67
2023/07/28 03:09:55;;;;;;;5.95;1.67;;;;;;;16.24;100.00;98316.22;4484553;32;20093;-67
2023/07/28 03:12:23;;;;;;;5.18;1.50;;;;;;;16.18;100.00;98312.50;4484829;32;20105;-67
2023/07/28 03:14:51;;;;;;;2.58;1.55;;;;;;;16.13;100.00;98315.69;4484733;32;20453;-67
2023/07/28 03:17:18;;;;;;;2.08;1.65;;;;;;;16.18;100.00;98312.50;4484756;32;20096;-67
2023/07/28 03:19:45;;;;;;;4.95;1.70;;;;;;;16.16;100.00;98303.13;4486054;32;20100;-67
2023/07/28 03:22:13;;;;;;;4.18;1.85;;;;;;;16.18;100.00;98301.13;4486348;31;20169;-67
2023/07/28 03:24:41;;;;;;;2.17;1.65;;;;;;;16.22;100.00;98297.91;4486397;32;20096;-67
2023/07/28 03:27:08;;;;;;;2.65;1.60;;;;;;;16.08;100.00;98301.41;4486788;31;20457;-67
2023/07/28 03:29:36;;;;;;;5.20;2.90;;;;;;;16.02;100.00;98299.47;4486353;32;20085;-67
2023/07/28 03:32:04;;;;;;;4.57;1.60;;;;;;;16.09;100.00;98297.75;4486627;32;20119;-67
2023/07/28 03:34:31;;;;;;;2.58;1.58;;;;;;;16.08;100.00;98301.41;4486170;31;20104;-67
2023/07/28 03:36:59;;;;;;;6.43;1.77;;;;;;;16.07;100.00;98299.78;4486495;31;20182;-67
2023/07/28 03:39:27;;;;;;;5.12;1.70;;;;;;;16.03;100.00;98299.28;4486172;31;20104;-67
2023/07/28 03:41:54;;;;;;;3.15;1.52;;;;;;;16.07;100.00;98295.28;4486132;32;20097;-67
2023/07/28 03:44:22;;;;;;;4.70;1.60;;;;;;;16.01;100.00;98293.37;4486493;31;20084;-67
2023/07/28 03:46:50;;;;;;;3.62;1.48;;;;;;;16.09;100.00;98301.22;4484992;32;20091;-67
2023/07/28 03:49:17;;;;;;;1.83;1.48;;;;;;;16.23;100.00;98306.66;4485941;31;20089;-67
2023/07/28 03:51:44;;;;;;;11.38;1.87;;;;;;;16.22;100.00;98294.47;4486339;31;20112;-67
2023/07/28 03:54:12;;;;;;;4.80;1.90;;;;;;;16.32;100.00;98287.03;4486269;32;20420;-67
2023/07/28 03:56:39;;;;;;;2.85;1.50;;;;;;;16.40;100.00;98292.22;4486243;31;20164;-67
2023/07/28 03:59:06;;;;;;;2.85;1.95;;;;;;;16.40;100.00;98294.06;4485299;32;20542;-68
2023/07/28 04:01:33;;;;;;;2.60;1.60;;;;;;;16.43;100.00;98299.78;4485451;32;20101;-67
2023/07/28 04:04:04;;;;;;;4.82;1.70;;;;;;;16.47;100.00;98300.22;4485834;31;20104;-67
2023/07/28 04:06:53;;;;;;;4.70;1.87;;;;;;;16.56;100.00;98308.87;4485993;31;20140;-68
2023/07/28 04:09:21;;;;;;;3.92;1.87;;;;;;;16.61;100.00;98311.78;4486014;31;20128;-68
2023/07/28 04:11:49;;;;;;;2.50;1.50;;;;;;;16.65;100.00;98305.94;4485367;31;20522;-67
2023/07/28 04:14:16;;;;;;;2.00;1.48;;;;;;;16.68;100.00;98304.72;4484903;32;20122;-67
2023/07/28 04:16:44;;;;;;;2.85;1.77;;;;;;;16.76;100.00;98301.97;4484970;32;20115;-67
2023/07/28 04:19:13;;;;;;;3.08;1.80;;;;;;;16.77;100.00;98300.94;4484853;32;20141;-67
2023/07/28 04:21:41;;;;;;;1.85;1.50;;;;;;;16.83;100.00;98304.69;4485993;32;20092;-67
2023/07/28 04:24:09;;;;;;;2.08;1.70;;;;;;;16.89;100.00;98308.44;4485906;32;20127;-67
2023/07/28 04:26:38;;;;;;;2.00;1.12;;;;;;;16.95;99.81;98308.47;4485043;31;20160;-67
2023/07/28 04:29:06;;;;;;;2.35;1.58;;;;;;;17.03;99.17;98320.75;4485816;31;20130;-68
2023/07/28 04:31:33;;;;;;;4.15;2.30;;;;;;;17.14;97.82;98322.09;4485022;32;20443;-67
2023/07/28 04:34:03;;;;;;;4.75;1.90;;;;;;;17.18;97.71;98318.03;4486054;31;20092;-67
2023/07/28 04:36:34;;;;;;;4.45;1.55;;;;;;;17.20;96.55;98311.56;4486215;32;20531;-68
2023/07/28 04:39:02;;;;;;;3.15;1.50;;;;;;;17.15;95.99;98318.44;4481100;31;20092;-68
2023/07/28 04:41:30;;;;;;;3.53;1.70;;;;;;;17.24;96.63;98321.75;4470059;32;20202;-67
2023/07/28 04:43:58;;;;;;;2.33;1.60;;;;;;;17.33;96.35;98310.03;4469692;32;20522;-68
2023/07/28 04:46:26;;;;;;;2.03;1.42;;;;;;;17.43;97.94;98293.81;4470145;32;20088;-67
2023/07/28 04:48:56;;;;;;;2.47;1.70;;;;;;;17.51;96.80;98293.66;4469962;32;20464;-67
2023/07/28 04:51:28;;;;;;;1.70;1.20;;;;;;;17.56;96.53;98291.22;4473960;32;20127;-67
2023/07/28 04:53:58;;;;;;;1.73;1.42;;;;;;;17.66;93.48;98285.59;4485965;32;20114;-67
2023/07/28 04:56:28;;;;;;;2.45;1.60;;;;;;;17.73;92.16;98300.53;4485695;32;20088;-67
2023/07/28 04:58:58;;;;;;;2.85;1.90;;;;;;;17.83;91.54;98294.88;4485441;31;20147;-67
2023/07/28 05:01:26;;;;;;;12.73;7.15;;;;;;;17.88;90.39;98295.13;4485033;31;20092;-68
2023/07/28 05:03:55;;;;;;;3.37;2.08;;;;;;;17.96;89.47;98298.66;4485619;31;20168;-67
2023/07/28 05:06:23;;;;;;;5.22;1.60;;;;;;;18.05;88.77;98298.28;4485582;31;20107;-67
2023/07/28 05:08:51;;;;;;;5.53;1.70;;;;;;;18.11;87.79;98285.25;4485411;31;20571;-67
2023/07/28 05:11:20;;;;;;;2.12;1.60;;;;;;;18.03;88.37;98283.56;4485594;31;20119;-67
2023/07/28 05:13:47;;;;;;;1.98;1.60;;;;;;;18.15;88.51;98284.66;4485002;31;20112;-67
2023/07/28 05:16:15;;;;;;;3.40;1.45;;;;;;;18.35;87.75;98284.75;4485070;32;20160;-67
2023/07/28 05:18:45;;;;;;;3.05;2.15;;;;;;;18.60;86.42;98284.19;4485771;31;20080;-67
2023/07/28 05:21:14;;;;;;;2.45;1.80;;;;;;;19.01;83.19;98295.72;4485693;32;20129;-68
2023/07/28 05:23:42;;;;;;;2.78;1.60;;;;;;;19.18;81.74;98286.31;4483943;31;20578;-67
2023/07/28 05:26:10;;;;;;;3.28;1.50;;;;;;;19.22;79.98;98290.19;4487401;31;20122;-68
2023/07/28 05:28:37;;;;;;;4.60;1.70;;;;;;;19.25;81.29;98299.59;4484648;31;20460;-68
2023/07/28 05:31:07;;;;;;;2.12;1.52;;;;;;;19.33;80.62;98304.69;4483270;31;20499;-67
2023/07/28 05:33:35;;;;;;;2.72;1.80;;;;;;;19.30;79.95;98308.59;4485118;31;20493;-67
2023/07/28 05:36:03;;;;;;;4.65;1.70;;;;;;;19.32;80.79;98300.41;4486859;31;20177;-67
2023/07/28 05:38:33;;;;;;;2.25;1.40;;;;;;;19.36;81.29;98306.94;4486711;31;20159;-68
2023/07/28 05:41:03;;;;;;;1.80;1.50;;;;;;;19.44;78.00;98304.09;4483350;31;20632;-69
2023/07/28 05:43:32;;;;;;;1.75;1.42;;;;;;;19.47;79.44;98309.00;4485723;31;20089;-69
2023/07/28 05:46:01;;;;;;;2.25;1.62;;;;;;;19.43;78.70;98305.09;4484216;32;20147;-69
2023/07/28 05:48:30;;;;;;;1.95;1.37;;;;;;;19.50;76.74;98307.78;4483067;31;20172;-69
2023/07/28 05:50:59;;;;;;;2.97;1.48;;;;;;;19.50;77.93;98311.22;4482684;31;20108;-69
2023/07/28 05:53:27;;;;;;;2.00;1.40;;;;;;;19.56;77.66;98314.91;4492172;31;20175;-68
2023/07/28 05:55:56;;;;;;;5.15;1.83;;;;;;;19.73;78.84;98325.09;4483678;31;20164;-69
2023/07/28 05:58:25;;;;;;;2.20;1.45;;;;;;;20.19;76.99;98325.00;4483560;31;20100;-69
2023/07/28 06:00:53;;;;;;;1.70;1.20;;;;;;;20.87;73.15;98325.53;4483189;32;20154;-69
2023/07/28 06:03:23;;;;;;;2.08;1.30;;;;;;;21.20;70.97;98327.94;4485192;31;20115;-69
2023/07/28 06:05:52;;;;;;;2.58;1.52;;;;;;;21.10;68.30;98327.62;4484094;31;20114;-70
2023/07/28 06:08:21;;;;;;;3.40;1.35;;;;;;;21.06;69.91;98343.22;4484575;31;20104;-69
2023/07/28 06:10:49;;;;;;;5.32;1.48;;;;;;;20.86;71.10;98331.87;4484271;31;20092;-69
2023/07/28 06:13:17;;;;;;;2.97;1.77;;;;;;;21.13;71.49;98342.34;4476372;31;20092;-70
2023/07/28 06:15:46;;;;;;;1.30;1.20;;;;;;;21.29;69.57;98336.50;4476848;31;20516;-69
2023/07/28 06:18:16;;;;;;;2.35;1.70;;;;;;;21.41;70.21;98337.41;4480381;31;20119;-69
2023/07/28 06:20:45;;;;;;;2.65;1.67;;;;;;;21.51;67.81;98333.47;4479120;31;20601;-70
2023/07/28 06:23:13;;;;;;;5.32;1.90;;;;;;;21.54;69.25;98325.03;4477649;31;20092;-70
2023/07/28 06:25:45;;;;;;;2.75;1.75;;;;;;;21.55;66.72;98327.47;4479818;31;20115;-70
2023/07/28 06:28:14;;;;;;;2.12;1.30;;;;;;;21.77;66.00;98340.41;4482644;31;20143;-70
2023/07/28 06:30:44;;;;;;;1.87;1.10;;;;;;;21.77;66.14;98343.91;4479039;31;20152;-69
2023/07/28 06:33:11;;;;;;;5.12;1.80;;;;;;;21.51;66.63;98333.47;4480634;31;20088;-69
2023/07/28 06:35:39;;;;;;;1.70;1.40;;;;;;;21.43;66.73;98337.19;4479397;31;20875;-69
2023/07/28 06:38:07;;;;;;;6.03;1.70;;;;;;;21.51;67.31;98341.47;4479481;31;20088;-69
2023/07/28 06:40:36;;;;;;;3.15;2.08;;;;;;;21.68;67.97;98334.56;4480884;31;20068;-69
2023/07/28 06:43:04;;;;;;;3.67;1.58;;;;;;;21.86;67.83;98327.59;4479522;31;20091;-69
2023/07/28 06:45:33;;;;;;;1.83;1.30;;;;;;;21.78;65.75;98331.37;4481944;32;20101;-70
2023/07/28 06:48:01;;;;;;;2.55;1.65;;;;;;;21.83;66.39;98323.50;4481870;31;20122;-69
2023/07/28 06:50:29;;;;;;;2.33;1.23;;;;;;;21.84;65.40;98327.00;4480636;31;20397;-69
2023/07/28 06:52:58;;;;;;;1.92;1.17;;;;;;;21.89;64.62;98319.16;4478610;31;20088;-70
2023/07/28 06:55:26;;;;;;;1.83;1.50;;;;;;;22.06;65.57;98322.88;4480817;31;20168;-69
2023/07/28 06:57:54;;;;;;;1.95;1.40;;;;;;;22.23;64.76;98325.75;4481601;31;20266;-69
2023/07/28 07:00:23;;;;;;;1.60;1.42;;;;;;;22.29;64.05;98319.50;4480709;31;20127;-70
2023/07/28 07:02:57;;;;;;;2.50;1.85;;;;;;;22.19;61.21;98321.09;4481345;31;20088;-69
2023/07/28 07:05:25;;;;;;;2.47;1.45;;;;;;;22.15;61.22;98326.88;4481400;31;20099;-69
2023/07/28 07:07:54;;;;;;;2.08;1.23;;;;;;;22.36;60.83;98322.13;4481890;31;20121;-70
2023/07/28 07:10:21;;;;;;;6.87;1.40;;;;;;;22.52;59.58;98325.22;4476706;31;20097;-69
2023/07/28 07:12:49;;;;;;;1.92;1.30;;;;;;;22.80;59.94;98317.44;4479200;31;20134;-70
2023/07/28 07:15:17;;;;;;;2.00;1.20;;;;;;;23.30;60.92;98316.31;4477222;31;20122;-70
2023/07/28 07:17:44;;;;;;;4.72;1.50;;;;;;;23.65;57.64;98318.16;4482302;31;20711;-70
2023/07/28 07:20:12;;;;;;;6.50;1.90;;;;;;;23.66;56.81;98311.75;4480663;31;20127;-71
2023/07/28 07:22:41;;;;;;;2.33;1.35;;;;;;;23.62;55.27;98302.59;4478678;31;20614;-71
2023/07/28 07:25:11;;;;;;;2.55;1.37;;;;;;;23.53;57.78;98306.66;4481090;31;20920;-70
2023/07/28 07:27:39;;;;;;;2.15;1.37;;;;;;;23.58;56.96;98314.78;4480926;32;20153;-71
2023/07/28 07:30:08;;;;;;;2.03;1.50;;;;;;;23.65;57.70;98309.31;4479914;31;20089;-70
2023/07/28 07:32:35;;;;;;;2.17;1.20;;;;;;;23.72;57.70;98310.84;4480367;31;20096;-70
2023/07/28 07:35:05;;;;;;;4.07;1.50;;;;;;;24.18;55.90;98310.19;4480332;31;20119;-71
2023/07/28 07:37:33;;;;;;;2.58;1.40;;;;;;;24.43;53.37;98308.03;4475563;31;20127;-71
2023/07/28 07:40:01;;;;;;;1.95;1.42;;;;;;;24.50;52.33;98307.91;4480039;31;20171;-70
2023/07/28 07:42:43;;;;;;;1.75;1.40;;;;;;;24.43;52.12;98299.19;4477199;31;20231;-71
2023/07/28 07:45:11;;;;;;;3.78;1.50;;;;;;;24.57;52.00;98297.03;4479214;31;20096;-70
2023/07/28 07:47:40;;;;;;;2.37;1.58;;;;;;;24.24;53.70;98294.00;4479845;31;20147;-70
2023/07/28 07:50:09;;;;;;;2.75;1.50;;;;;;;24.26;53.18;98299.94;4478631;31;20104;-70
2023/07/28 07:52:38;;;;;;;3.80;1.30;;;;;;;24.38;52.88;98299.09;4467704;31;20093;-70
2023/07/28 07:55:11;;;;;;;2.20;1.60;;;;;;;24.54;53.77;98292.97;4479446;31;20127;-70
2023/07/28 07:57:40;;;;;;;2.72;1.37;;;;;;;24.55;52.54;98289.22;4479647;31;20163;-70
2023/07/28 08:00:08;;;;;;;3.42;1.90;;;;;;;24.64;51.85;98294.25;4480360;31;20117;-70
2023/07/28 08:02:39;;;;;;;4.37;1.40;;;;;;;24.72;50.52;98294.66;4479589;31;20110;-71
2023/07/28 08:05:14;;;;;;;1.95;1.30;;;;;;;24.60;51.40;98288.53;4479795;31;20108;-70
2023/07/28 08:07:42;;;;;;;6.20;1.65;;;;;;;24.66;51.06;98289.44;4481091;31;20473;-71
2023/07/28 08:10:10;;;;;;;1.55;1.27;;;;;;;24.89;52.96;98289.34;4479521;31;20132;-71
2023/07/28 08:12:37;;;;;;;8.30;1.65;;;;;;;25.17;50.72;98290.31;4481133;31;20139;-70
2023/07/28 08:15:06;;;;;;;2.17;1.37;;;;;;;25.56;50.58;98297.62;4481013;32;20130;-71
2023/07/28 08:17:36;;;;;;;1.60;1.23;;;;;;;25.85;48.76;98300.97;4482305;31;20092;-71
2023/07/28 08:20:09;;;;;;;3.35;1.87;;;;;;;25.69;48.57;98297.25;4477712;31;20731;-71
2023/07/28 08:22:36;;;;;;;3.08;1.40;;;;;;;25.50;47.01;98299.44;4481619;31;20174;-70
2023/07/28 08:25:04;;;;;;;1.90;1.27;;;;;;;25.14;48.77;98306.88;4484077;31;20120;-70
2023/07/28 08:27:32;;;;;;;1.55;1.30;;;;;;;25.22;49.04;98303.78;4481133;31;20108;-70
2023/07/28 08:29:59;;;;;;;4.95;1.70;;;;;;;25.46;50.70;98307.13;4482693;31;20107;-70
2023/07/28 08:32:27;;;;;;;2.53;1.08;;;;;;;25.64;48.82;98313.31;4482393;31;20466;-70
2023/07/28 08:34:55;;;;;;;1.83;1.08;;;;;;;25.73;47.91;98309.13;4481820;31;20583;-70
2023/07/28 08:37:23;;;;;;;5.93;1.42;;;;;;;25.54;47.55;98310.47;4481384;31;20135;-70
2023/07/28 08:39:52;;;;;;;1.85;1.50;;;;;;;25.25;48.88;98305.97;4481041;31;20150;-71
2023/07/28 08:42:21;;;;;;;1.85;1.05;;;;;;;25.10;50.34;98298.53;4477966;31;20096;-71
2023/07/28 08:44:48;;;;;;;1.58;1.08;;;;;;;25.27;48.37;98292.31;4479141;31;20101;-71
2023/07/28 08:47:15;;;;;;;2.15;1.30;;;;;;;25.49;49.09;98295.13;4481897;31;21550;-71
2023/07/28 08:49:42;;;;;;;3.22;1.20;;;;;;;25.94;48.20;98291.44;4481954;31;20096;-70
2023/07/28 08:52:10;;;;;;;2.55;1.48;;;;;;;25.98;47.59;98287.22;4482110;31;20147;-70
2023/07/28 08:54:37;;;;;;;4.03;1.27;;;;;;;25.98;47.24;98284.53;4482948;31;20487;-70
2023/07/28 08:57:04;;;;;;;1.60;1.33;;;;;;;26.24;47.33;98273.28;4482023;32;20673;-71
2023/07/28 08:59:31;;;;;;;1.92;1.37;;;;;;;26.23;47.89;98282.41;4480690;31;20135;-71
2023/07/28 09:01:59;;;;;;;1.75;1.23;;;;;;;26.33;47.61;98272.59;4481471;31;20921;-70
2023/07/28 09:04:28;;;;;;;5.82;1.33;;;;;;;26.26;48.97;98268.50;4479628;31;20100;-71
2023/07/28 09:06:56;;;;;;;1.62;1.10;;;;;;;26.32;48.43;98273.66;4478785;31;20161;-71
2023/07/28 09:09:23;;;;;;;2.58;1.42;;;;;;;26.43;48.17;98266.50;4479905;31;20104;-71
2023/07/28 09:11:53;;;;;;;2.40;1.30;;;;;;;26.46;48.42;98265.19;4477441;31;20525;-70
2023/07/28 09:14:25;;;;;;;3.17;1.20;;;;;;;26.45;47.01;98272.47;4480030;31;20124;-71
2023/07/28 09:16:53;;;;;;;2.33;1.52;;;;;;;26.56;47.15;98276.84;4477178;31;20106;-70
2023/07/28 09:19:21;;;;;;;3.03;1.20;;;;;;;26.73;46.10;98268.72;4481109;31;20728;-71
2023/07/28 09:22:00;;;;;;;2.40;1.30;;;;;;;26.94;48.15;98262.72;4476916;31;20096;-70
2023/07/28 09:24:33;;;;;;;2.20;1.23;;;;;;;27.04;46.31;98266.28;4479028;32;20145;-71
2023/07/28 09:27:02;;;;;;;3.17;1.45;;;;;;;27.09;45.74;98266.31;4478646;31;20087;-71
2023/07/28 09:29:29;;;;;;;1.58;1.35;;;;;;;27.02;47.12;98268.41;4479367;31;20477;-71
2023/07/28 09:32:05;;;;;;;3.67;1.40;;;;;;;26.98;46.01;98264.63;4480343;31;20466;-69
2023/07/28 09:34:34;;;;;;;2.03;1.40;;;;;;;27.03;46.64;98264.66;4479740;31;20100;-68
2023/07/28 09:37:05;;;;;;;3.22;1.30;;;;;;;27.35;47.26;98255.78;4480372;31;20097;-67
2023/07/28 09:39:36;;;;;;;2.05;1.15;;;;;;;27.67;46.44;98260.25;4478879;31;20470;-71
2023/07/28 09:42:07;;;;;;;1.50;1.20;;;;;;;27.47;47.33;98260.16;4480003;31;20165;-69
2023/07/28 09:44:36;;;;;;;1.87;1.27;;;;;;;27.62;45.88;98263.72;4476537;31;20126;-68
2023/07/28 09:47:03;;;;;;;1.40;1.27;;;;;;;27.59;45.92;98260.75;4480853;31;20123;-68
2023/07/28 09:49:37;;;;;;;2.30;1.10;;;;;;;27.70;44.61;98259.72;4482247;31;20100;-68
2023/07/28 09:52:06;;;;;;;2.50;1.40;;;;;;;27.61;44.74;98261.31;4483216;31;20491;-68
2023/07/28 09:54:38;;;;;;;1.77;1.25;;;;;;;27.23;46.09;98253.25;4481243;31;20167;-68
2023/07/28 09:57:13;;;;;;;1.00;0.90;;;;;;;27.41;46.68;98254.72;4484343;31;20107;-68
2023/07/28 09:59:42;;;;;;;1.52;1.30;;;;;;;27.81;46.42;98244.44;4482858;32;20473;-68
2023/07/28 10:02:11;;;;;;;1.50;1.40;;;;;;;27.30;46.14;98252.19;4485402;31;20608;-68
2023/07/28 10:04:40;;;;;;;9.30;2.28;;;;;;;27.21;47.61;98246.53;4469524;31;20126;-68
2023/07/28 10:07:07;;;;;;;2.62;1.42;;;;;;;27.52;46.79;98246.72;4466246;32;20430;-68
2023/07/28 10:09:37;;;;;;;2.00;1.60;;;;;;;27.74;46.64;98239.31;4466794;32;20169;-68
2023/07/28 10:12:05;;;;;;;3.55;1.42;;;;;;;27.94;45.93;98241.25;4477066;31;20172;-68
2023/07/28 10:14:37;;;;;;;2.37;1.20;;;;;;;27.94;45.71;98243.16;4481690;31;20119;-68
2023/07/28 10:17:06;;;;;;;2.43;1.57;;;;;;;28.09;47.11;98245.94;4483169;31;20104;-68
2023/07/28 10:19:35;;;;;;;5.28;1.45;;;;;;;27.97;46.39;98256.91;4483616;31;20127;-69
2023/07/28 10:22:11;;;;;;;2.80;1.40;;;;;;;28.40;46.86;98250.59;4483850;31;20080;-67
2023/07/28 10:25:01;;;;;;;5.68;1.65;;;;;;;28.23;46.13;98256.22;4483346;31;20446;-67
2023/07/28 10:27:32;;;;;;;2.03;1.45;;;;;;;28.36;46.42;98247.63;4484130;32;20489;-68
2023/07/28 10:30:05;;;;;;;3.35;2.10;;;;;;;28.44;45.97;98255.16;4482995;31;20096;-67
2023/07/28 10:32:41;;;;;;;3.97;1.98;;;;;;;28.09;46.04;98253.22;4483925;31;20121;-68
2023/07/28 10:35:22;;;;;;;1.92;1.30;;;;;;;28.33;46.03;98246.25;4484333;31;20131;-69
2023/07/28 10:37:56;;;;;;;3.62;1.42;;;;;;;28.33;44.76;98251.66;4484139;31;20114;-71
2023/07/28 10:40:28;;;;;;;2.97;1.30;;;;;;;28.41;45.58;98260.28;4487374;31;20084;-71
2023/07/28 10:42:57;;;;;;;3.90;1.65;;;;;;;28.49;44.76;98268.66;4484721;31;20076;-70
2023/07/28 10:45:28;;;;;;;2.75;1.70;;;;;;;28.45;45.76;98261.34;4484592;31;20589;-71
2023/07/28 10:48:00;;;;;;;2.78;1.25;;;;;;;28.81;46.06;98267.66;4483134;31;20432;-70
2023/07/28 10:50:31;;;;;;;2.67;1.20;;;;;;;28.37;44.50;98260.00;4483147;31;20142;-69
2023/07/28 10:52:58;;;;;;;3.15;1.70;;;;;;;28.72;44.63;98261.19;4480079;31;20088;-70
2023/07/28 10:55:27;;;;;;;2.45;1.65;;;;;;;28.32;45.64;98260.81;4494542;31;20116;-70
2023/07/28 10:57:58;;;;;;;2.37;1.87;;;;;;;28.25;47.12;98256.75;4498913;31;20104;-70
2023/07/28 11:00:28;;;;;;;1.92;1.50;;;;;;;28.30;45.10;98256.78;4489443;31;20568;-69
2023/07/28 11:02:56;;;;;;;2.83;1.75;;;;;;;28.22;45.75;98258.09;4481598;32;20567;-69
2023/07/28 11:05:29;;;;;;;1.52;1.10;;;;;;;28.53;45.75;98257.34;4482157;31;20092;-67
2023/07/28 11:07:58;;;;;;;3.00;1.50;;;;;;;28.82;46.35;98241.50;4482308;32;20111;-68
2023/07/28 11:10:31;;;;;;;2.67;1.80;;;;;;;29.01;44.93;98255.25;4481703;32;20119;-67
2023/07/28 11:13:01;;;;;;;2.08;1.40;;;;;;;29.22;42.78;98250.66;4484690;32;20144;-68
2023/07/28 11:15:48;;;;;;;3.97;1.67;;;;;;;29.23;43.97;98251.50;4468831;32;20102;-67
2023/07/28 11:18:15;;;;;;;2.95;1.50;;;;;;;29.44;43.40;98250.34;4467855;32;20144;-68
2023/07/28 11:20:44;;;;;;;1.98;1.40;;;;;;;29.45;43.48;98246.59;4468499;32;20164;-66
2023/07/28 11:23:14;;;;;;;2.92;1.60;;;;;;;29.47;44.29;98249.81;4468849;32;20507;-68
2023/07/28 11:25:44;;;;;;;3.37;1.50;;;;;;;29.35;42.78;98243.91;4468781;32;20465;-67
2023/07/28 11:28:12;;;;;;;5.28;1.60;;;;;;;29.42;43.79;98243.59;4468215;32;20119;-66
2023/07/28 11:30:42;;;;;;;1.65;1.30;;;;;;;29.26;44.45;98251.75;4468630;32;20472;-66
2023/07/28 11:33:12;;;;;;;4.50;1.20;;;;;;;29.33;45.15;98244.19;4468733;32;20458;-66
2023/07/28 11:35:42;;;;;;;3.35;1.27;;;;;;;29.22;45.06;98245.25;4467191;32;20111;-67
2023/07/28 11:38:09;;;;;;;2.85;1.52;;;;;;;29.34;44.32;98242.28;4468163;32;20533;-65
2023/07/28 11:40:38;;;;;;;1.12;0.95;;;;;;;29.20;44.00;98233.91;4469945;32;20085;-66